Marble Canyon, AZ

7:24 PM MST on September 15, 2014 (GMT -0700)
Page Municipal | Change Station
CLOSE
Current Station
Airport
Location: Page,
Elevation: 4308 ft
Nearby Weather Stations

Elev 4308 ft 36.92 °N, 111.45 °W | Updated 31 minutes ago

Clear
Clear
87 °F
Feels Like 87 °F
N
5
Wind Variable Wind from South

Today
High -- | Low -- °F
--% Chance of Precip.
Yesterday
High -- | Low -- °F
Precip. -- in
6:08 AM 6:33 PM
Waning Gibbous, 50% visible
Pressure 29.85 in
Visibility 10.0 miles
Clouds Clear
Dew Point 40 °F
Humidity 19%
Rainfall 0.00 in
Snow Depth 1 in , 0 in , 0 in
UV 0 out of 12
Pollen 6.00 out of 12
Air Quality Not available.
Flu Activity Not available.
METAR KPGA 160153Z AUTO 18004KT 10SM CLR 31/04 A3004 RMK AO2 SLP106 T03060044

More Conditions Fewer Conditions

Pressure 29.85 in
Visibility 10.0 miles
Clouds Clear
Dew Point 40 °F
Humidity 19%
Rainfall 0.00 in
Snow Depth 1 in , 0 in , 0 in
UV 0 out of 12
Pollen 6.00 out of 12
Air Quality Not available.
Flu Activity Not available.
METAR KPGA 160153Z AUTO 18004KT 10SM CLR 31/04 A3004 RMK AO2 SLP106 T03060044

More Conditions Fewer Conditions

10-Day Weather Forecast

Almanac

Astronomy

Sep. 15, 2014 Rise Set
Actual Time 6:08 AM MST 6:33 PM MST
Civil Twilight 5:42 AM MST 6:59 PM MST
Nautical Twilight 5:12 AM MST 7:30 PM MST
Astronomical Twilight 4:41 AM MST 8:01 PM MST
Moon 11:28 PM MST (9/15) 1:03 PM MST (9/15)
Length of Visible Light 13h 17m
Length of Day
12h 25m
Tomorrow will be 2m 18s shorter.
Waning Gibbous, 50% of the Moon is Illuminated
Today
Waning Gibbous
Sep 24
New
Oct 1
First Quarter
Oct 8
Full
Oct 15
Last Quarter

Today's Extremes

State Highs State Lows

Community

WunderPhotos

Upload Photos

1,753,666 photos uploaded!

Nearby

Snow Depth

Station Depth Elevation
Workman Creek 1 in 6900 ft
White Horse Lake 0 in 7180 ft
Maverick Fork 0 in 9200 ft
Beaver Head 32 in 7990 ft
Snowslide Canyon 0 in 9730 ft

Earthquake Activity

City Distance Mag. Time & Date
No recent earthquake activity has been reported nearby.
Minimum magnitude displayed is 2.5.

Coastal Water Temperatures

Place Temperature
No Stations Reporting

Nearby Weather Stations